sensor_id;sensor_type;location;lat;lon;timestamp;pressure;altitude;pressure_sealevel;temperature
67509;BMP280;54354;44.724;11.284;2022-12-18T00:01:01;102684.81;;;15.15
67509;BMP280;54354;44.724;11.284;2022-12-18T00:03:31;102679.13;;;15.12
67509;BMP280;54354;44.724;11.284;2022-12-18T00:05:57;102685.97;;;15.10
67509;BMP280;54354;44.724;11.284;2022-12-18T00:08:22;102690.16;;;15.07
67509;BMP280;54354;44.724;11.284;2022-12-18T00:10:47;102684.84;;;15.04
67509;BMP280;54354;44.724;11.284;2022-12-18T00:13:13;102693.25;;;15.02
67509;BMP280;54354;44.724;11.284;2022-12-18T00:15:38;102689.81;;;14.98
67509;BMP280;54354;44.724;11.284;2022-12-18T00:18:04;102705.47;;;14.96
67509;BMP280;54354;44.724;11.284;2022-12-18T00:20:30;102705.88;;;14.95
67509;BMP280;54354;44.724;11.284;2022-12-18T00:22:56;102710.44;;;14.91
67509;BMP280;54354;44.724;11.284;2022-12-18T00:25:22;102724.56;;;14.88
67509;BMP280;54354;44.724;11.284;2022-12-18T00:27:47;102713.09;;;14.87
67509;BMP280;54354;44.724;11.284;2022-12-18T00:30:13;102715.78;;;14.87
67509;BMP280;54354;44.724;11.284;2022-12-18T00:32:38;102721.88;;;14.84
67509;BMP280;54354;44.724;11.284;2022-12-18T00:35:04;102721.53;;;14.78
67509;BMP280;54354;44.724;11.284;2022-12-18T00:37:30;102714.66;;;14.74
67509;BMP280;54354;44.724;11.284;2022-12-18T00:39:55;102719.63;;;14.68
67509;BMP280;54354;44.724;11.284;2022-12-18T00:42:20;102715.44;;;14.67
67509;BMP280;54354;44.724;11.284;2022-12-18T00:45:05;102712.78;;;14.67
67509;BMP280;54354;44.724;11.284;2022-12-18T00:47:30;102717.34;;;14.67
67509;BMP280;54354;44.724;11.284;2022-12-18T00:49:55;102729.16;;;14.66
67509;BMP280;54354;44.724;11.284;2022-12-18T00:52:21;102730.31;;;14.65
67509;BMP280;54354;44.724;11.284;2022-12-18T00:54:46;102727.66;;;14.61
67509;BMP280;54354;44.724;11.284;2022-12-18T00:57:12;102729.19;;;14.58
67509;BMP280;54354;44.724;11.284;2022-12-18T00:59:37;102731.09;;;14.58
67509;BMP280;54354;44.724;11.284;2022-12-18T01:02:02;102732.97;;;14.61
67509;BMP280;54354;44.724;11.284;2022-12-18T01:04:28;102732.97;;;14.65
67509;BMP280;54354;44.724;11.284;2022-12-18T01:06:55;102745.16;;;14.66
67509;BMP280;54354;44.724;11.284;2022-12-18T01:09:21;102746.28;;;14.68
67509;BMP280;54354;44.724;11.284;2022-12-18T01:11:46;102744.03;;;14.70
67509;BMP280;54354;44.724;11.284;2022-12-18T01:14:11;102742.50;;;14.73
67509;BMP280;54354;44.724;11.284;2022-12-18T01:16:37;102741.34;;;14.77
67509;BMP280;54354;44.724;11.284;2022-12-18T01:19:03;102742.88;;;14.78
67509;BMP280;54354;44.724;11.284;2022-12-18T01:21:28;102749.72;;;14.83
67509;BMP280;54354;44.724;11.284;2022-12-18T01:23:54;102759.59;;;14.86
67509;BMP280;54354;44.724;11.284;2022-12-18T01:26:22;102755.06;;;14.83
67509;BMP280;54354;44.724;11.284;2022-12-18T01:28:49;102750.09;;;14.85
67509;BMP280;54354;44.724;11.284;2022-12-18T01:31:16;102750.44;;;14.87
67509;BMP280;54354;44.724;11.284;2022-12-18T01:33:42;102753.13;;;14.87
67509;BMP280;54354;44.724;11.284;2022-12-18T01:36:08;102760.38;;;14.90
67509;BMP280;54354;44.724;11.284;2022-12-18T01:38:33;102766.84;;;14.93
67509;BMP280;54354;44.724;11.284;2022-12-18T01:40:59;102766.47;;;14.94
67509;BMP280;54354;44.724;11.284;2022-12-18T01:43:41;102758.06;;;14.92
67509;BMP280;54354;44.724;11.284;2022-12-18T01:46:06;102769.13;;;14.91
67509;BMP280;54354;44.724;11.284;2022-12-18T01:48:31;102773.72;;;14.94
67509;BMP280;54354;44.724;11.284;2022-12-18T01:50:57;102770.66;;;14.95
67509;BMP280;54354;44.724;11.284;2022-12-18T01:53:25;102779.81;;;14.94
67509;BMP280;54354;44.724;11.284;2022-12-18T01:55:54;102783.63;;;14.90
67509;BMP280;54354;44.724;11.284;2022-12-18T01:58:21;102779.44;;;14.85
67509;BMP280;54354;44.724;11.284;2022-12-18T02:00:48;102785.16;;;14.83
67509;BMP280;54354;44.724;11.284;2022-12-18T02:03:13;102796.59;;;14.84
67509;BMP280;54354;44.724;11.284;2022-12-18T02:18:36;102814.88;;;14.85
67509;BMP280;54354;44.724;11.284;2022-12-18T02:28:18;102824.78;;;14.78
67509;BMP280;54354;44.724;11.284;2022-12-18T02:30:45;102832.03;;;14.77
67509;BMP280;54354;44.724;11.284;2022-12-18T02:33:12;102827.81;;;14.80
67509;BMP280;54354;44.724;11.284;2022-12-18T02:35:40;102825.91;;;14.80
67509;BMP280;54354;44.724;11.284;2022-12-18T02:38:07;102830.13;;;14.81
67509;BMP280;54354;44.724;11.284;2022-12-18T02:40:35;102839.28;;;14.84
67509;BMP280;54354;44.724;11.284;2022-12-18T02:43:12;102832.41;;;14.83
67509;BMP280;54354;44.724;11.284;2022-12-18T02:45:55;102841.59;;;14.78
67509;BMP280;54354;44.724;11.284;2022-12-18T02:48:29;102844.22;;;14.75
67509;BMP280;54354;44.724;11.284;2022-12-18T02:53:25;102851.84;;;14.73
67509;BMP280;54354;44.724;11.284;2022-12-18T02:56:12;102853.38;;;14.70
67509;BMP280;54354;44.724;11.284;2022-12-18T03:01:33;102855.66;;;14.65
67509;BMP280;54354;44.724;11.284;2022-12-18T03:04:02;102865.16;;;14.62
67509;BMP280;54354;44.724;11.284;2022-12-18T03:06:30;102856.41;;;14.62
67509;BMP280;54354;44.724;11.284;2022-12-18T03:09:02;102858.69;;;14.59
67509;BMP280;54354;44.724;11.284;2022-12-18T03:11:30;102864.00;;;14.56
67509;BMP280;54354;44.724;11.284;2022-12-18T03:14:16;102864.03;;;14.52
67509;BMP280;54354;44.724;11.284;2022-12-18T03:16:42;102866.28;;;14.50
67509;BMP280;54354;44.724;11.284;2022-12-18T03:19:11;102867.84;;;14.51
67509;BMP280;54354;44.724;11.284;2022-12-18T03:21:43;102866.28;;;14.50
67509;BMP280;54354;44.724;11.284;2022-12-18T03:24:10;102870.50;;;14.48
67509;BMP280;54354;44.724;11.284;2022-12-18T03:26:37;102872.75;;;14.42
67509;BMP280;54354;44.724;11.284;2022-12-18T03:29:09;102875.81;;;14.41
67509;BMP280;54354;44.724;11.284;2022-12-18T03:31:37;102877.31;;;14.35
67509;BMP280;54354;44.724;11.284;2022-12-18T03:34:05;102874.25;;;14.32
67509;BMP280;54354;44.724;11.284;2022-12-18T03:36:39;102884.16;;;14.32
67509;BMP280;54354;44.724;11.284;2022-12-18T03:39:06;102881.88;;;14.30
67509;BMP280;54354;44.724;11.284;2022-12-18T03:41:42;102886.06;;;14.28
67509;BMP280;54354;44.724;11.284;2022-12-18T03:47:29;102889.47;;;14.18
67509;BMP280;54354;44.724;11.284;2022-12-18T03:52:38;102889.03;;;14.12
67509;BMP280;54354;44.724;11.284;2022-12-18T03:55:07;102892.84;;;14.04
67509;BMP280;54354;44.724;11.284;2022-12-18T03:57:34;102897.38;;;14.00
67509;BMP280;54354;44.724;11.284;2022-12-18T04:00:10;102893.22;;;13.99
67509;BMP280;54354;44.724;11.284;2022-12-18T04:02:40;102898.53;;;13.99
67509;BMP280;54354;44.724;11.284;2022-12-18T04:05:07;102895.88;;;13.99
67509;BMP280;54354;44.724;11.284;2022-12-18T04:07:37;102900.03;;;13.96
67509;BMP280;54354;44.724;11.284;2022-12-18T04:10:05;102898.50;;;13.95
67509;BMP280;54354;44.724;11.284;2022-12-18T04:12:31;102901.53;;;13.94
67509;BMP280;54354;44.724;11.284;2022-12-18T04:14:57;102903.84;;;13.92
67509;BMP280;54354;44.724;11.284;2022-12-18T04:17:23;102910.28;;;13.91
67509;BMP280;54354;44.724;11.284;2022-12-18T04:19:49;102917.88;;;13.89
67509;BMP280;54354;44.724;11.284;2022-12-18T04:22:15;102922.06;;;13.90
67509;BMP280;54354;44.724;11.284;2022-12-18T04:24:45;102923.97;;;13.89
67509;BMP280;54354;44.724;11.284;2022-12-18T04:27:18;102925.50;;;13.90
67509;BMP280;54354;44.724;11.284;2022-12-18T04:29:49;102941.06;;;13.88
67509;BMP280;54354;44.724;11.284;2022-12-18T04:32:17;102938.81;;;13.87
67509;BMP280;54354;44.724;11.284;2022-12-18T04:34:43;102937.28;;;13.89
67509;BMP280;54354;44.724;11.284;2022-12-18T04:37:09;102951.78;;;13.92
67509;BMP280;54354;44.724;11.284;2022-12-18T04:39:34;102962.78;;;13.94
67509;BMP280;54354;44.724;11.284;2022-12-18T04:42:08;102961.31;;;13.96
67509;BMP280;54354;44.724;11.284;2022-12-18T04:44:33;102970.81;;;13.97
67509;BMP280;54354;44.724;11.284;2022-12-18T04:46:59;102968.53;;;13.96
67509;BMP280;54354;44.724;11.284;2022-12-18T04:49:24;102965.47;;;13.94
67509;BMP280;54354;44.724;11.284;2022-12-18T04:51:50;102972.69;;;13.93
67509;BMP280;54354;44.724;11.284;2022-12-18T04:54:15;102975.34;;;13.90
67509;BMP280;54354;44.724;11.284;2022-12-18T04:56:40;102974.97;;;13.91
67509;BMP280;54354;44.724;11.284;2022-12-18T04:59:06;102974.94;;;13.88
67509;BMP280;54354;44.724;11.284;2022-12-18T05:01:31;102981.03;;;13.85
67509;BMP280;54354;44.724;11.284;2022-12-18T05:03:56;102985.19;;;13.82
67509;BMP280;54354;44.724;11.284;2022-12-18T05:06:22;102977.56;;;13.77
67509;BMP280;54354;44.724;11.284;2022-12-18T05:08:47;102979.09;;;13.78
67509;BMP280;54354;44.724;11.284;2022-12-18T05:11:13;102989.75;;;13.82
67509;BMP280;54354;44.724;11.284;2022-12-18T05:13:41;102994.72;;;13.83
67509;BMP280;54354;44.724;11.284;2022-12-18T05:16:06;103000.81;;;13.84
67509;BMP280;54354;44.724;11.284;2022-12-18T05:18:32;103006.91;;;13.84
67509;BMP280;54354;44.724;11.284;2022-12-18T05:20:57;103006.47;;;13.82
67509;BMP280;54354;44.724;11.284;2022-12-18T05:23:23;103015.59;;;13.77
67509;BMP280;54354;44.724;11.284;2022-12-18T05:25:52;103018.63;;;13.76
67509;BMP280;54354;44.724;11.284;2022-12-18T05:28:19;103021.28;;;13.76
67509;BMP280;54354;44.724;11.284;2022-12-18T05:30:51;103017.84;;;13.75
67509;BMP280;54354;44.724;11.284;2022-12-18T05:33:17;103020.13;;;13.73
67509;BMP280;54354;44.724;11.284;2022-12-18T05:35:42;103028.91;;;13.74
67509;BMP280;54354;44.724;11.284;2022-12-18T05:38:08;103023.94;;;13.72
67509;BMP280;54354;44.724;11.284;2022-12-18T05:40:33;103036.06;;;13.70
67509;BMP280;54354;44.724;11.284;2022-12-18T05:42:58;103031.88;;;13.69
67509;BMP280;54354;44.724;11.284;2022-12-18T05:45:24;103034.56;;;13.69
67509;BMP280;54354;44.724;11.284;2022-12-18T05:47:49;103042.16;;;13.67
67509;BMP280;54354;44.724;11.284;2022-12-18T05:50:15;103047.84;;;13.65
67509;BMP280;54354;44.724;11.284;2022-12-18T05:52:40;103046.69;;;13.63
67509;BMP280;54354;44.724;11.284;2022-12-18T05:55:06;103038.69;;;13.59
67509;BMP280;54354;44.724;11.284;2022-12-18T05:57:31;103050.06;;;13.56
67509;BMP280;54354;44.724;11.284;2022-12-18T05:59:56;103053.03;;;13.51
67509;BMP280;54354;44.724;11.284;2022-12-18T06:02:22;103056.81;;;13.46
67509;BMP280;54354;44.724;11.284;2022-12-18T06:04:47;103064.78;;;13.46
67509;BMP280;54354;44.724;11.284;2022-12-18T06:07:12;103062.91;;;13.47
67509;BMP280;54354;44.724;11.284;2022-12-18T06:09:38;103061.78;;;13.48
67509;BMP280;54354;44.724;11.284;2022-12-18T06:12:03;103067.84;;;13.48
67509;BMP280;54354;44.724;11.284;2022-12-18T06:14:28;103064.03;;;13.49
67509;BMP280;54354;44.724;11.284;2022-12-18T06:16:54;103059.13;;;13.48
67509;BMP280;54354;44.724;11.284;2022-12-18T06:19:19;103069.00;;;13.47
67509;BMP280;54354;44.724;11.284;2022-12-18T06:21:45;103076.16;;;13.43
67509;BMP280;54354;44.724;11.284;2022-12-18T06:24:10;103079.56;;;13.40
67509;BMP280;54354;44.724;11.284;2022-12-18T06:26:39;103074.97;;;13.37
67509;BMP280;54354;44.724;11.284;2022-12-18T06:29:04;103090.16;;;13.37
67509;BMP280;54354;44.724;11.284;2022-12-18T06:31:30;103087.09;;;13.35
67509;BMP280;54354;44.724;11.284;2022-12-18T06:33:55;103090.09;;;13.30
67509;BMP280;54354;44.724;11.284;2022-12-18T06:36:21;103090.75;;;13.23
67509;BMP280;54354;44.724;11.284;2022-12-18T06:38:47;103097.53;;;13.17
67509;BMP280;54354;44.724;11.284;2022-12-18T06:41:16;103107.06;;;13.14
67509;BMP280;54354;44.724;11.284;2022-12-18T06:43:42;103119.56;;;13.14
67509;BMP280;54354;44.724;11.284;2022-12-18T06:46:07;103122.59;;;13.12
67509;BMP280;54354;44.724;11.284;2022-12-18T06:48:33;103120.38;;;13.14
67509;BMP280;54354;44.724;11.284;2022-12-18T06:50:59;103120.38;;;13.14
67509;BMP280;54354;44.724;11.284;2022-12-18T06:53:24;103123.38;;;13.13
67509;BMP280;54354;44.724;11.284;2022-12-18T06:55:50;103127.91;;;13.09
67509;BMP280;54354;44.724;11.284;2022-12-18T06:58:16;103133.56;;;13.07
67509;BMP280;54354;44.724;11.284;2022-12-18T07:00:41;103133.13;;;13.05
67509;BMP280;54354;44.724;11.284;2022-12-18T07:03:07;103150.22;;;13.04
67509;BMP280;54354;44.724;11.284;2022-12-18T07:05:32;103149.47;;;13.04
67509;BMP280;54354;44.724;11.284;2022-12-18T07:07:58;103157.44;;;13.04
67509;BMP280;54354;44.724;11.284;2022-12-18T07:10:23;103164.31;;;13.05
67509;BMP280;54354;44.724;11.284;2022-12-18T07:12:49;103155.56;;;13.04
67509;BMP280;54354;44.724;11.284;2022-12-18T07:15:14;103167.72;;;13.05
67509;BMP280;54354;44.724;11.284;2022-12-18T07:17:40;103166.25;;;13.08
67509;BMP280;54354;44.724;11.284;2022-12-18T07:20:05;103172.38;;;13.08
67509;BMP280;54354;44.724;11.284;2022-12-18T07:22:31;103171.97;;;13.10
67509;BMP280;54354;44.724;11.284;2022-12-18T07:24:56;103169.38;;;13.13
67509;BMP280;54354;44.724;11.284;2022-12-18T07:27:22;103177.72;;;13.12
67509;BMP280;54354;44.724;11.284;2022-12-18T07:29:47;103171.63;;;13.11
67509;BMP280;54354;44.724;11.284;2022-12-18T07:32:13;103180.78;;;13.14
67509;BMP280;54354;44.724;11.284;2022-12-18T07:34:38;103190.31;;;13.15
67509;BMP280;54354;44.724;11.284;2022-12-18T07:37:03;103188.81;;;13.17
67509;BMP280;54354;44.724;11.284;2022-12-18T07:39:29;103196.41;;;13.19
67509;BMP280;54354;44.724;11.284;2022-12-18T07:41:55;103194.53;;;13.19
67509;BMP280;54354;44.724;11.284;2022-12-18T07:44:39;103195.22;;;13.16
67509;BMP280;54354;44.724;11.284;2022-12-18T07:47:04;103193.41;;;13.20
67509;BMP280;54354;44.724;11.284;2022-12-18T07:49:29;103206.38;;;13.25
67509;BMP280;54354;44.724;11.284;2022-12-18T07:51:55;103198.09;;;13.31
67509;BMP280;54354;44.724;11.284;2022-12-18T07:54:21;103186.38;;;13.35
67509;BMP280;54354;44.724;11.284;2022-12-18T07:56:47;103200.81;;;13.38
67509;BMP280;54354;44.724;11.284;2022-12-18T07:59:12;103204.66;;;13.40
67509;BMP280;54354;44.724;11.284;2022-12-18T08:01:37;103215.75;;;13.46
67509;BMP280;54354;44.724;11.284;2022-12-18T08:04:03;103210.47;;;13.49
67509;BMP280;54354;44.724;11.284;2022-12-18T08:06:28;103211.66;;;13.52
67509;BMP280;54354;44.724;11.284;2022-12-18T08:08:54;103214.34;;;13.56
67509;BMP280;54354;44.724;11.284;2022-12-18T08:11:20;103218.59;;;13.60
67509;BMP280;54354;44.724;11.284;2022-12-18T08:13:45;103220.88;;;13.62
67509;BMP280;54354;44.724;11.284;2022-12-18T08:16:11;103229.31;;;13.67
67509;BMP280;54354;44.724;11.284;2022-12-18T08:18:37;103230.13;;;13.71
67509;BMP280;54354;44.724;11.284;2022-12-18T08:21:09;103227.09;;;13.73
67509;BMP280;54354;44.724;11.284;2022-12-18T08:23:35;103227.50;;;13.75
67509;BMP280;54354;44.724;11.284;2022-12-18T08:26:00;103246.56;;;13.77
67509;BMP280;54354;44.724;11.284;2022-12-18T08:28:26;103249.22;;;13.77
67509;BMP280;54354;44.724;11.284;2022-12-18T08:30:52;103254.56;;;13.81
67509;BMP280;54354;44.724;11.284;2022-12-18T08:33:17;103260.38;;;13.86
67509;BMP280;54354;44.724;11.284;2022-12-18T08:35:43;103264.25;;;13.92
67509;BMP280;54354;44.724;11.284;2022-12-18T08:38:08;103268.41;;;13.93
67509;BMP280;54354;44.724;11.284;2022-12-18T08:40:33;103281.00;;;13.96
67509;BMP280;54354;44.724;11.284;2022-12-18T08:42:59;103276.09;;;13.98
67509;BMP280;54354;44.724;11.284;2022-12-18T08:45:43;103279.09;;;13.97
67509;BMP280;54354;44.724;11.284;2022-12-18T08:48:08;103290.53;;;13.97
67509;BMP280;54354;44.724;11.284;2022-12-18T08:50:34;103294.75;;;13.98
67509;BMP280;54354;44.724;11.284;2022-12-18T08:52:59;103298.94;;;13.99
67509;BMP280;54354;44.724;11.284;2022-12-18T08:55:25;103297.78;;;14.00
67509;BMP280;54354;44.724;11.284;2022-12-18T08:57:50;103296.66;;;14.01
67509;BMP280;54354;44.724;11.284;2022-12-18T09:00:16;103300.09;;;14.02
67509;BMP280;54354;44.724;11.284;2022-12-18T09:02:41;103305.44;;;14.02
67509;BMP280;54354;44.724;11.284;2022-12-18T09:05:07;103306.94;;;13.99
67509;BMP280;54354;44.724;11.284;2022-12-18T09:07:32;103315.66;;;14.00
67509;BMP280;54354;44.724;11.284;2022-12-18T09:09:57;103311.91;;;14.01
67509;BMP280;54354;44.724;11.284;2022-12-18T09:12:23;103316.41;;;13.97
67509;BMP280;54354;44.724;11.284;2022-12-18T09:14:48;103319.84;;;13.97
67509;BMP280;54354;44.724;11.284;2022-12-18T09:17:13;103322.94;;;13.99
67509;BMP280;54354;44.724;11.284;2022-12-18T09:19:39;103311.53;;;14.02
67509;BMP280;54354;44.724;11.284;2022-12-18T09:22:04;103314.22;;;14.06
67509;BMP280;54354;44.724;11.284;2022-12-18T09:24:29;103316.53;;;14.08
67509;BMP280;54354;44.724;11.284;2022-12-18T09:26:55;103313.50;;;14.09
67509;BMP280;54354;44.724;11.284;2022-12-18T09:29:20;103315.81;;;14.11
67509;BMP280;54354;44.724;11.284;2022-12-18T09:31:46;103320.41;;;14.14
67509;BMP280;54354;44.724;11.284;2022-12-18T09:34:11;103325.72;;;14.14
67509;BMP280;54354;44.724;11.284;2022-12-18T09:36:38;103315.81;;;14.11
67509;BMP280;54354;44.724;11.284;2022-12-18T09:39:03;103311.97;;;14.08
67509;BMP280;54354;44.724;11.284;2022-12-18T09:41:50;103312.00;;;14.12
67509;BMP280;54354;44.724;11.284;2022-12-18T09:44:28;103311.25;;;14.11
67509;BMP280;54354;44.724;11.284;2022-12-18T09:47:03;103321.91;;;14.11
67509;BMP280;54354;44.724;11.284;2022-12-18T09:49:32;103311.97;;;14.08
67509;BMP280;54354;44.724;11.284;2022-12-18T09:52:04;103306.28;;;14.10
67509;BMP280;54354;44.724;11.284;2022-12-18T09:54:35;103306.69;;;14.12
67509;BMP280;54354;44.724;11.284;2022-12-18T09:57:03;103298.66;;;14.08
67509;BMP280;54354;44.724;11.284;2022-12-18T09:59:38;103299.78;;;14.07
67509;BMP280;54354;44.724;11.284;2022-12-18T10:02:18;103295.25;;;14.11
67509;BMP280;54354;44.724;11.284;2022-12-18T10:04:44;103289.59;;;14.16
67509;BMP280;54354;44.724;11.284;2022-12-18T10:07:15;103286.56;;;14.18
67509;BMP280;54354;44.724;11.284;2022-12-18T10:09:51;103289.25;;;14.21
67509;BMP280;54354;44.724;11.284;2022-12-18T10:12:23;103293.84;;;14.24
67509;BMP280;54354;44.724;11.284;2022-12-18T10:19:57;103287.38;;;14.22
67509;BMP280;54354;44.724;11.284;2022-12-18T10:27:20;103287.06;;;14.30
67509;BMP280;54354;44.724;11.284;2022-12-18T10:29:48;103280.56;;;14.28
67509;BMP280;54354;44.724;11.284;2022-12-18T10:32:17;103276.00;;;14.28
67509;BMP280;54354;44.724;11.284;2022-12-18T10:34:47;103280.59;;;14.31
67509;BMP280;54354;44.724;11.284;2022-12-18T10:37:17;103275.69;;;14.37
67509;BMP280;54354;44.724;11.284;2022-12-18T10:39:43;103276.13;;;14.43
67509;BMP280;54354;44.724;11.284;2022-12-18T10:42:09;103275.75;;;14.44
67509;BMP280;54354;44.724;11.284;2022-12-18T10:44:35;103269.66;;;14.44
67509;BMP280;54354;44.724;11.284;2022-12-18T10:47:04;103270.41;;;14.44
67509;BMP280;54354;44.724;11.284;2022-12-18T10:49:30;103264.72;;;14.46
67509;BMP280;54354;44.724;11.284;2022-12-18T10:52:17;103268.94;;;14.47
67509;BMP280;54354;44.724;11.284;2022-12-18T10:54:46;103269.31;;;14.49
67509;BMP280;54354;44.724;11.284;2022-12-18T11:02:35;103269.34;;;14.52
67509;BMP280;54354;44.724;11.284;2022-12-18T11:05:01;103275.84;;;14.55
67509;BMP280;54354;44.724;11.284;2022-12-18T11:07:29;103269.78;;;14.58
67509;BMP280;54354;44.724;11.284;2022-12-18T11:10:14;103273.25;;;14.66
67509;BMP280;54354;44.724;11.284;2022-12-18T11:12:40;103271.78;;;14.72
67509;BMP280;54354;44.724;11.284;2022-12-18T11:15:06;103279.03;;;14.75
67509;BMP280;54354;44.724;11.284;2022-12-18T11:17:32;103276.34;;;14.75
67509;BMP280;54354;44.724;11.284;2022-12-18T11:20:04;103279.81;;;14.79
67509;BMP280;54354;44.724;11.284;2022-12-18T11:22:33;103279.88;;;14.86
67509;BMP280;54354;44.724;11.284;2022-12-18T11:27:36;103278.78;;;14.94
67509;BMP280;54354;44.724;11.284;2022-12-18T11:32:47;103291.41;;;15.01
67509;BMP280;54354;44.724;11.284;2022-12-18T11:35:17;103283.81;;;15.06
67509;BMP280;54354;44.724;11.284;2022-12-18T11:37:47;103286.88;;;15.08
67509;BMP280;54354;44.724;11.284;2022-12-18T11:40:15;103283.09;;;15.13
67509;BMP280;54354;44.724;11.284;2022-12-18T11:42:55;103281.22;;;15.17
67509;BMP280;54354;44.724;11.284;2022-12-18T11:45:24;103280.44;;;15.20
67509;BMP280;54354;44.724;11.284;2022-12-18T11:47:58;103270.53;;;15.21
67509;BMP280;54354;44.724;11.284;2022-12-18T11:50:38;103266.72;;;15.18
67509;BMP280;54354;44.724;11.284;2022-12-18T11:53:11;103263.63;;;15.16
67509;BMP280;54354;44.724;11.284;2022-12-18T11:59:09;103261.38;;;15.22
67509;BMP280;54354;44.724;11.284;2022-12-18T12:01:07;103267.47;;;15.26
67509;BMP280;54354;44.724;11.284;2022-12-18T12:06:24;103257.63;;;15.33
67509;BMP280;54354;44.724;11.284;2022-12-18T12:09:04;103250.78;;;15.36
67509;BMP280;54354;44.724;11.284;2022-12-18T12:16:42;103250.00;;;15.43
67509;BMP280;54354;44.724;11.284;2022-12-18T12:21:39;103248.09;;;15.39
67509;BMP280;54354;44.724;11.284;2022-12-18T12:34:13;103258.06;;;15.50
67509;BMP280;54354;44.724;11.284;2022-12-18T12:36:54;103263.03;;;15.55
67509;BMP280;54354;44.724;11.284;2022-12-18T12:39:23;103249.66;;;15.55
67509;BMP280;54354;44.724;11.284;2022-12-18T12:41:51;103248.16;;;15.57
67509;BMP280;54354;44.724;11.284;2022-12-18T12:44:55;103242.81;;;15.57
67509;BMP280;54354;44.724;11.284;2022-12-18T12:47:26;103251.59;;;15.61
67509;BMP280;54354;44.724;11.284;2022-12-18T12:49:51;103250.47;;;15.66
67509;BMP280;54354;44.724;11.284;2022-12-18T12:52:20;103256.22;;;15.68
67509;BMP280;54354;44.724;11.284;2022-12-18T12:54:49;103258.88;;;15.68
67509;BMP280;54354;44.724;11.284;2022-12-18T12:57:21;103264.25;;;15.68
67509;BMP280;54354;44.724;11.284;2022-12-18T13:02:50;103260.81;;;15.68
67509;BMP280;54354;44.724;11.284;2022-12-18T13:05:25;103255.06;;;15.69
67509;BMP280;54354;44.724;11.284;2022-12-18T13:10:25;103245.53;;;15.72
67509;BMP280;54354;44.724;11.284;2022-12-18T13:12:52;103255.47;;;15.75
67509;BMP280;54354;44.724;11.284;2022-12-18T13:17:48;103255.09;;;15.80
67509;BMP280;54354;44.724;11.284;2022-12-18T13:20:15;103259.66;;;15.79
67509;BMP280;54354;44.724;11.284;2022-12-18T13:22:44;103248.97;;;15.79
67509;BMP280;54354;44.724;11.284;2022-12-18T13:25:29;103259.66;;;15.79
67509;BMP280;54354;44.724;11.284;2022-12-18T13:38:20;103250.50;;;15.84
67509;BMP280;54354;44.724;11.284;2022-12-18T13:43:53;103249.00;;;15.86
67509;BMP280;54354;44.724;11.284;2022-12-18T13:51:16;103241.72;;;15.83
67509;BMP280;54354;44.724;11.284;2022-12-18T13:53:44;103242.09;;;15.85
67509;BMP280;54354;44.724;11.284;2022-12-18T13:56:15;103239.44;;;15.85
67509;BMP280;54354;44.724;11.284;2022-12-18T13:58:40;103239.41;;;15.82
67509;BMP280;54354;44.724;11.284;2022-12-18T14:01:15;103246.31;;;15.79
67509;BMP280;54354;44.724;11.284;2022-12-18T14:03:40;103248.59;;;15.77
67509;BMP280;54354;44.724;11.284;2022-12-18T14:06:06;103247.84;;;15.77
67509;BMP280;54354;44.724;11.284;2022-12-18T14:08:35;103247.44;;;15.78
67509;BMP280;54354;44.724;11.284;2022-12-18T14:11:02;103238.28;;;15.79
67509;BMP280;54354;44.724;11.284;2022-12-18T14:13:30;103234.84;;;15.82
67509;BMP280;54354;44.724;11.284;2022-12-18T14:15:56;103242.84;;;15.82
67509;BMP280;54354;44.724;11.284;2022-12-18T14:18:23;103245.91;;;15.81
67509;BMP280;54354;44.724;11.284;2022-12-18T14:20:50;103256.97;;;15.79
67509;BMP280;54354;44.724;11.284;2022-12-18T14:25:50;103259.28;;;15.74
67509;BMP280;54354;44.724;11.284;2022-12-18T14:28:16;103260.06;;;15.74
67509;BMP280;54354;44.724;11.284;2022-12-18T14:30:42;103262.72;;;15.74
67509;BMP280;54354;44.724;11.284;2022-12-18T14:35:40;103256.97;;;15.76
67509;BMP280;54354;44.724;11.284;2022-12-18T14:40:47;103263.50;;;15.75
67509;BMP280;54354;44.724;11.284;2022-12-18T14:43:16;103262.72;;;15.74
67509;BMP280;54354;44.724;11.284;2022-12-18T14:45:42;103260.41;;;15.73
67509;BMP280;54354;44.724;11.284;2022-12-18T14:48:09;103261.91;;;15.70
67509;BMP280;54354;44.724;11.284;2022-12-18T14:50:37;103254.31;;;15.69
67509;BMP280;54354;44.724;11.284;2022-12-18T14:53:02;103256.56;;;15.66
67509;BMP280;54354;44.724;11.284;2022-12-18T14:55:28;103261.16;;;15.62
67509;BMP280;54354;44.724;11.284;2022-12-18T14:57:54;103256.94;;;15.58
67509;BMP280;54354;44.724;11.284;2022-12-18T15:00:21;103266.47;;;15.55
67509;BMP280;54354;44.724;11.284;2022-12-18T15:02:48;103264.56;;;15.52
67509;BMP280;54354;44.724;11.284;2022-12-18T15:07:47;103264.53;;;15.49
67509;BMP280;54354;44.724;11.284;2022-12-18T15:12:42;103260.31;;;15.40
67509;BMP280;54354;44.724;11.284;2022-12-18T15:17:57;103260.28;;;15.30
67509;BMP280;54354;44.724;11.284;2022-12-18T15:20:22;103256.81;;;15.26
67509;BMP280;54354;44.724;11.284;2022-12-18T15:22:48;103265.97;;;15.21
67509;BMP280;54354;44.724;11.284;2022-12-18T15:25:22;103272.06;;;15.18
67509;BMP280;54354;44.724;11.284;2022-12-18T15:27:49;103273.16;;;15.13
67509;BMP280;54354;44.724;11.284;2022-12-18T15:32:40;103276.53;;;15.03
67509;BMP280;54354;44.724;11.284;2022-12-18T15:37:33;103280.69;;;14.94
67509;BMP280;54354;44.724;11.284;2022-12-18T15:39:59;103287.53;;;14.88
67509;BMP280;54354;44.724;11.284;2022-12-18T15:42:24;103287.09;;;14.82
67509;BMP280;54354;44.724;11.284;2022-12-18T15:45:11;103292.00;;;14.76
67509;BMP280;54354;44.724;11.284;2022-12-18T15:47:36;103293.13;;;14.72
67509;BMP280;54354;44.724;11.284;2022-12-18T15:50:02;103306.06;;;14.70